createdAt,value
2018-11-14T00:00:59.507Z,101640.71
2018-11-14T00:03:27.531Z,101651.66
2018-11-14T00:05:55.608Z,101643.64
2018-11-14T00:08:23.577Z,101648.10
2018-11-14T00:10:51.746Z,101650.05
2018-11-14T00:13:19.862Z,101651.58
2018-11-14T00:15:47.922Z,101653.83
2018-11-14T00:18:15.922Z,101655.68
2018-11-14T00:20:43.941Z,101658.51
2018-11-14T00:23:11.941Z,101654.05
2018-11-14T00:25:39.946Z,101659.69
2018-11-14T00:28:07.976Z,101664.77
2018-11-14T00:30:35.949Z,101659.10
2018-11-14T00:33:03.956Z,101666.53
2018-11-14T00:35:31.977Z,101669.45
2018-11-14T00:38:00.036Z,101661.98
2018-11-14T00:40:28.025Z,101659.07
2018-11-14T00:42:56.002Z,101660.52
2018-11-14T00:45:23.981Z,101662.52
2018-11-14T00:47:52.147Z,101661.13
2018-11-14T00:50:20.706Z,101660.83
2018-11-14T00:52:48.723Z,101665.13
2018-11-14T00:55:18.891Z,101664.83
2018-11-14T00:57:48.040Z,101672.68
2018-11-14T01:00:19.016Z,101668.00
2018-11-14T01:02:47.208Z,101671.70
2018-11-14T01:05:16.236Z,101662.91
2018-11-14T01:07:44.306Z,101672.39
2018-11-14T01:10:14.168Z,101670.46
2018-11-14T01:12:42.617Z,101672.88
2018-11-14T01:15:13.091Z,101678.33
2018-11-14T01:17:41.417Z,101680.73
2018-11-14T01:20:11.457Z,101686.13
2018-11-14T01:22:39.765Z,101691.69
2018-11-14T01:25:09.036Z,101698.45
2018-11-14T01:27:37.023Z,101696.30
2018-11-14T01:30:08.350Z,101690.05
2018-11-14T01:32:36.400Z,101690.28
2018-11-14T01:35:05.213Z,101687.27
2018-11-14T01:37:33.244Z,101690.05
2018-11-14T01:40:01.165Z,101686.17
2018-11-14T01:42:29.151Z,101680.25
2018-11-14T01:45:13.860Z,101680.58
2018-11-14T01:47:41.880Z,101676.87
2018-11-14T01:50:10.337Z,101678.80
2018-11-14T01:52:38.983Z,101681.95
2018-11-14T01:55:08.314Z,101682.20
2018-11-14T01:57:36.269Z,101680.48
2018-11-14T02:00:05.599Z,101678.18
2018-11-14T02:02:33.592Z,101669.10
2018-11-14T02:05:01.526Z,101669.10
2018-11-14T02:07:29.500Z,101673.94
2018-11-14T02:09:57.485Z,101675.25
2018-11-14T02:12:25.420Z,101682.95
2018-11-14T02:14:53.379Z,101672.56
2018-11-14T02:17:21.348Z,101672.72
2018-11-14T02:19:49.331Z,101681.05
2018-11-14T02:22:17.295Z,101672.09
2018-11-14T02:24:45.357Z,101669.84
2018-11-14T02:27:13.273Z,101665.38
2018-11-14T02:29:41.291Z,101667.53
2018-11-14T02:32:09.251Z,101669.16
2018-11-14T02:34:37.241Z,101670.09
2018-11-14T02:37:05.205Z,101666.16
2018-11-14T02:39:33.215Z,101669.09
2018-11-14T02:42:01.448Z,101658.77
2018-11-14T02:44:29.435Z,101673.56
2018-11-14T02:46:57.437Z,101671.10
2018-11-14T02:49:25.427Z,101663.71
2018-11-14T02:51:53.374Z,101667.49
2018-11-14T02:54:21.338Z,101670.48
2018-11-14T02:56:49.271Z,101673.64
2018-11-14T02:59:17.223Z,101673.64
2018-11-14T03:01:45.161Z,101670.70
2018-11-14T03:04:13.157Z,101666.62
2018-11-14T03:06:41.122Z,101660.84
2018-11-14T03:09:09.157Z,101670.02
2018-11-14T03:11:37.167Z,101667.77
2018-11-14T03:14:05.898Z,101668.39
2018-11-14T03:16:33.876Z,101660.09
2018-11-14T03:19:01.787Z,101653.36
2018-11-14T03:21:29.744Z,101652.92
2018-11-14T03:23:57.700Z,101665.41
2018-11-14T03:26:25.561Z,101661.84
2018-11-14T03:28:53.504Z,101658.06
2018-11-14T03:31:21.344Z,101664.86
2018-11-14T03:33:49.201Z,101658.36
2018-11-14T03:36:18.188Z,101651.36
2018-11-14T03:38:46.395Z,101640.94
2018-11-14T03:41:14.255Z,101648.73
2018-11-14T03:43:42.079Z,101640.91
2018-11-14T03:46:09.944Z,101640.85
2018-11-14T03:48:37.750Z,101641.62
2018-11-14T03:51:05.720Z,101641.80
2018-11-14T03:53:33.622Z,101650.97
2018-11-14T03:56:01.537Z,101646.17
2018-11-14T03:58:29.422Z,101642.24
2018-11-14T04:00:57.312Z,101648.86
2018-11-14T04:03:25.146Z,101647.18
2018-11-14T04:05:57.592Z,101645.33
2018-11-14T04:08:25.687Z,101647.88
2018-11-14T04:10:53.547Z,101649.73
2018-11-14T04:13:21.445Z,101647.34
2018-11-14T04:15:49.457Z,101644.25
2018-11-14T04:18:17.303Z,101647.34
2018-11-14T04:20:45.190Z,101654.50
2018-11-14T04:23:13.038Z,101651.81
2018-11-14T04:25:41.136Z,101652.89
2018-11-14T04:28:09.181Z,101655.14
2018-11-14T04:30:37.242Z,101650.14
2018-11-14T04:33:05.539Z,101639.72
2018-11-14T04:35:33.602Z,101635.78
2018-11-14T04:38:01.635Z,101629.53
2018-11-14T04:40:29.706Z,101635.61
2018-11-14T04:42:57.650Z,101636.86
2018-11-14T04:45:26.526Z,101635.22
2018-11-14T04:47:54.774Z,101621.56
2018-11-14T04:50:24.757Z,101625.37
2018-11-14T04:52:53.024Z,101629.20
2018-11-14T04:55:22.759Z,101631.15
2018-11-14T04:57:51.127Z,101628.59
2018-11-14T05:00:20.374Z,101625.73
2018-11-14T05:02:49.027Z,101625.73
2018-11-14T05:05:18.642Z,101624.28
2018-11-14T05:07:47.135Z,101623.27
2018-11-14T05:10:17.542Z,101621.83
2018-11-14T05:12:46.259Z,101616.28
2018-11-14T05:15:25.264Z,101618.21
2018-11-14T05:17:53.897Z,101619.05
2018-11-14T05:20:22.716Z,101611.05
2018-11-14T05:22:51.424Z,101615.55
2018-11-14T05:25:20.005Z,101621.00
2018-11-14T05:27:48.058Z,101619.91
2018-11-14T05:30:18.576Z,101627.47
2018-11-14T05:32:48.023Z,101624.47
2018-11-14T05:35:16.617Z,101628.64
2018-11-14T05:37:45.416Z,101622.09
2018-11-14T05:40:16.174Z,101622.32
2018-11-14T05:42:45.340Z,101619.30
2018-11-14T05:45:17.859Z,101619.86
2018-11-14T05:47:46.598Z,101624.80
2018-11-14T05:50:17.668Z,101617.71
2018-11-14T05:52:46.602Z,101621.40
2018-11-14T05:55:15.599Z,101626.86
2018-11-14T05:57:44.141Z,101628.33
2018-11-14T06:00:16.306Z,101630.42
2018-11-14T06:02:46.257Z,101627.56
2018-11-14T06:05:14.783Z,101626.66
2018-11-14T06:07:43.455Z,101624.09
2018-11-14T06:10:12.820Z,101624.25
2018-11-14T06:12:42.139Z,101626.94
2018-11-14T06:15:13.680Z,101625.63
2018-11-14T06:17:43.164Z,101620.39
2018-11-14T06:20:13.618Z,101622.16
2018-11-14T06:22:43.000Z,101626.19
2018-11-14T06:25:21.455Z,101618.86
2018-11-14T06:27:51.073Z,101619.70
2018-11-14T06:30:20.013Z,101630.70
2018-11-14T06:32:48.807Z,101633.48
2018-11-14T06:35:18.082Z,101635.20
2018-11-14T06:37:47.187Z,101637.03
2018-11-14T06:40:15.656Z,101642.27
2018-11-14T06:42:44.752Z,101640.34
2018-11-14T06:45:15.342Z,101649.97
2018-11-14T06:47:46.260Z,101644.73
2018-11-14T06:50:15.163Z,101645.20
2018-11-14T06:52:44.384Z,101652.84
2018-11-14T06:55:15.107Z,101646.83
2018-11-14T06:57:43.743Z,101651.44
2018-11-14T07:00:16.082Z,101656.23
2018-11-14T07:02:45.642Z,101654.46
2018-11-14T07:05:15.563Z,101654.36
2018-11-14T07:07:44.655Z,101666.41
2018-11-14T07:10:14.929Z,101669.48
2018-11-14T07:12:43.552Z,101666.86
2018-11-14T07:15:14.068Z,101668.06
2018-11-14T07:17:43.208Z,101667.52
2018-11-14T07:20:20.046Z,101659.36
2018-11-14T07:22:48.628Z,101657.33
2018-11-14T07:25:17.143Z,101660.95
2018-11-14T07:27:45.776Z,101665.89
2018-11-14T07:30:17.335Z,101666.23
2018-11-14T07:32:47.337Z,101660.77
2018-11-14T07:35:16.430Z,101663.76
2018-11-14T07:38:52.321Z,101663.94
2018-11-14T07:41:29.850Z,101668.23
2018-11-14T07:43:58.446Z,101674.67
2018-11-14T07:46:28.377Z,101674.84
2018-11-14T07:48:57.040Z,101676.27
2018-11-14T07:51:25.644Z,101684.11
2018-11-14T07:53:54.216Z,101677.49
2018-11-14T07:56:22.649Z,101675.81
2018-11-14T07:58:51.331Z,101688.84
2018-11-14T08:01:19.811Z,101691.34
2018-11-14T08:03:48.807Z,101691.39
2018-11-14T08:06:17.270Z,101695.52
2018-11-14T08:08:46.211Z,101692.41
2018-11-14T08:11:14.711Z,101697.61
2018-11-14T08:13:44.986Z,101699.86
2018-11-14T08:16:14.095Z,101699.47
2018-11-14T08:18:42.877Z,101697.61
2018-11-14T08:21:11.478Z,101701.78
2018-11-14T08:23:40.009Z,101697.86
2018-11-14T08:26:08.637Z,101701.25
2018-11-14T08:28:37.072Z,101688.55
2018-11-14T08:31:05.532Z,101692.19
2018-11-14T08:33:33.961Z,101697.55
2018-11-14T08:36:02.597Z,101691.22
2018-11-14T08:38:31.081Z,101690.49
2018-11-14T08:40:59.898Z,101697.25
2018-11-14T08:43:28.375Z,101691.93
2018-11-14T08:45:57.016Z,101692.62
2018-11-14T08:48:25.668Z,101689.52
2018-11-14T08:50:54.345Z,101690.39
2018-11-14T08:53:22.895Z,101683.83
2018-11-14T08:55:51.381Z,101688.06
2018-11-14T08:58:19.777Z,101686.88
2018-11-14T09:00:48.193Z,101686.45
2018-11-14T09:03:16.613Z,101695.16
2018-11-14T09:05:45.113Z,101692.10
2018-11-14T09:08:13.554Z,101692.41
2018-11-14T09:10:42.054Z,101698.63
2018-11-14T09:13:15.359Z,101699.37
2018-11-14T09:15:44.177Z,101695.25
2018-11-14T09:18:12.890Z,101692.30
2018-11-14T09:20:41.474Z,101699.27
2018-11-14T09:23:10.032Z,101697.20
2018-11-14T09:25:38.516Z,101703.20
2018-11-14T09:28:07.016Z,101703.41
2018-11-14T09:30:35.420Z,101712.33
2018-11-14T09:33:03.861Z,101705.41
2018-11-14T09:35:32.334Z,101711.67
2018-11-14T09:38:01.397Z,101726.06
2018-11-14T09:40:30.481Z,101720.97
2018-11-14T09:42:58.925Z,101718.89
2018-11-14T09:45:29.474Z,101718.05
2018-11-14T09:47:58.193Z,101710.44
2018-11-14T09:50:28.873Z,101711.55
2018-11-14T09:52:58.833Z,101702.89
2018-11-14T09:55:27.292Z,101694.67
2018-11-14T09:57:55.743Z,101688.36
2018-11-14T10:00:25.693Z,101691.19
2018-11-14T10:02:55.825Z,101687.59
2018-11-14T10:05:24.831Z,101691.49
2018-11-14T10:07:53.402Z,101696.56
2018-11-14T10:10:22.603Z,101692.47
2018-11-14T10:12:51.463Z,101694.05
2018-11-14T10:15:23.193Z,101694.81
2018-11-14T10:17:51.908Z,101691.41
2018-11-14T10:20:21.685Z,101698.73
2018-11-14T10:22:50.466Z,101702.59
2018-11-14T10:25:19.143Z,101699.45
2018-11-14T10:27:48.229Z,101705.90
2018-11-14T10:30:18.779Z,101704.58
2018-11-14T10:32:47.849Z,101703.05
2018-11-14T10:35:16.276Z,101713.33
2018-11-14T10:37:44.957Z,101702.09
2018-11-14T10:40:18.885Z,101700.17
2018-11-14T10:42:47.608Z,101699.22
2018-11-14T10:45:17.464Z,101707.34
2018-11-14T10:47:45.996Z,101695.38
2018-11-14T10:50:17.047Z,101692.56
2018-11-14T10:52:45.586Z,101690.50
2018-11-14T10:55:14.965Z,101689.44
2018-11-14T10:57:43.543Z,101690.10
2018-11-14T11:00:19.337Z,101691.67
2018-11-14T11:02:53.347Z,101693.78
2018-11-14T11:06:30.894Z,101693.67
2018-11-14T11:09:04.683Z,101675.31
2018-11-14T11:11:38.504Z,101670.45
2018-11-14T11:14:12.265Z,101666.83
2018-11-14T11:16:47.994Z,101659.39
2018-11-14T11:19:18.117Z,101656.20
2018-11-14T11:21:47.047Z,101653.34
2018-11-14T11:24:17.048Z,101651.70
2018-11-14T11:26:45.551Z,101651.97
2018-11-14T11:29:14.089Z,101639.02
2018-11-14T11:31:42.570Z,101642.05
2018-11-14T11:34:11.827Z,101642.80
2018-11-14T11:36:40.687Z,101656.97
2018-11-14T11:39:14.266Z,101649.08
2018-11-14T11:41:43.262Z,101642.55
2018-11-14T11:44:12.400Z,101648.28
2018-11-14T11:46:41.905Z,101644.05
2018-11-14T11:49:11.025Z,101636.83
2018-11-14T11:51:39.678Z,101629.70
2018-11-14T11:54:08.703Z,101618.40
2018-11-14T11:56:37.670Z,101609.81
2018-11-14T11:59:07.092Z,101608.05
2018-11-14T12:01:35.703Z,101607.21
2018-11-14T12:04:04.541Z,101603.78
2018-11-14T12:06:32.877Z,101598.51
2018-11-14T12:09:01.488Z,101608.91
2018-11-14T12:11:29.968Z,101601.34
2018-11-14T12:13:58.650Z,101602.08
2018-11-14T12:16:27.226Z,101602.82
2018-11-14T12:18:56.341Z,101596.14
2018-11-14T12:21:24.786Z,101594.38
2018-11-14T12:23:53.219Z,101598.04
2018-11-14T12:26:21.883Z,101606.22
2018-11-14T12:28:50.321Z,101599.98
2018-11-14T12:31:19.204Z,101610.80
2018-11-14T12:33:48.166Z,101601.95
2018-11-14T12:36:25.169Z,101597.90
2018-11-14T12:38:54.144Z,101603.13
2018-11-14T12:41:27.461Z,101593.23
2018-11-14T12:43:56.280Z,101603.05
2018-11-14T12:46:25.121Z,101596.00
2018-11-14T12:48:53.621Z,101590.78
2018-11-14T12:51:21.969Z,101587.43
2018-11-14T12:53:50.441Z,101593.50
2018-11-14T12:56:19.023Z,101586.81
2018-11-14T12:58:47.526Z,101594.68
2018-11-14T13:01:16.081Z,101588.30
2018-11-14T13:03:44.462Z,101574.10
2018-11-14T13:09:10.172Z,101580.18
2018-11-14T13:11:40.910Z,101577.77
2018-11-14T13:14:11.210Z,101574.86
2018-11-14T13:16:40.673Z,101572.61
2018-11-14T13:19:13.680Z,101571.30
2018-11-14T13:21:47.361Z,101572.84
2018-11-14T13:24:20.160Z,101563.30
2018-11-14T13:26:50.741Z,101563.53
2018-11-14T13:29:24.583Z,101562.37
2018-11-14T13:31:56.051Z,101563.59
2018-11-14T13:34:27.754Z,101561.05
2018-11-14T13:37:01.466Z,101563.98
2018-11-14T13:39:41.307Z,101564.71
2018-11-14T13:42:14.641Z,101567.55
2018-11-14T13:44:49.226Z,101564.31
2018-11-14T13:47:22.051Z,101568.58
2018-11-14T13:49:55.338Z,101568.98
2018-11-14T13:52:29.766Z,101570.52
2018-11-14T13:55:08.124Z,101572.72
2018-11-14T13:57:36.960Z,101573.91
2018-11-14T14:00:07.303Z,101574.00
2018-11-14T14:02:35.669Z,101566.16
2018-11-14T14:05:04.448Z,101554.17
2018-11-14T14:07:33.091Z,101563.44
2018-11-14T14:10:01.703Z,101573.55
2018-11-14T14:12:30.327Z,101564.10
2018-11-14T14:14:58.967Z,101564.39
2018-11-14T14:17:27.641Z,101557.73
2018-11-14T14:19:57.504Z,101558.11
2018-11-14T14:22:26.230Z,101550.65
2018-11-14T14:24:54.683Z,101548.23
2018-11-14T14:27:23.321Z,101545.45
2018-11-14T14:29:53.520Z,101547.17
2018-11-14T14:32:23.210Z,101558.30
2018-11-14T14:34:51.702Z,101557.32
2018-11-14T14:37:20.598Z,101553.36
2018-11-14T14:39:50.325Z,101551.47
2018-11-14T14:42:18.823Z,101553.22
2018-11-14T14:44:47.345Z,101552.03
2018-11-14T14:47:17.710Z,101549.49
2018-11-14T14:49:46.384Z,101553.09
2018-11-14T14:52:18.103Z,101549.81
2018-11-14T14:54:54.790Z,101552.81
2018-11-14T14:57:23.785Z,101558.23
2018-11-14T15:00:21.827Z,101559.30
2018-11-14T15:02:50.863Z,101557.69
2018-11-14T15:05:28.188Z,101560.55
2018-11-14T15:07:56.823Z,101553.88
2018-11-14T15:10:25.282Z,101562.65
2018-11-14T15:12:54.348Z,101553.95
2018-11-14T15:15:22.898Z,101552.34
2018-11-14T15:17:58.387Z,101550.73
2018-11-14T15:20:27.694Z,101548.36
2018-11-14T15:22:56.244Z,101550.16
2018-11-14T15:25:25.467Z,101556.27
2018-11-14T15:27:56.149Z,101542.36
2018-11-14T15:30:38.923Z,101545.87
2018-11-14T15:33:07.733Z,101542.94
2018-11-14T15:35:36.544Z,101544.16
2018-11-14T15:38:05.200Z,101547.60
2018-11-14T15:40:43.975Z,101546.53
2018-11-14T15:43:13.108Z,101538.91
2018-11-14T15:45:42.127Z,101539.75
2018-11-14T15:48:10.621Z,101539.45
2018-11-14T15:50:39.929Z,101539.39
2018-11-14T15:53:10.222Z,101542.48
2018-11-14T15:55:39.086Z,101550.73
2018-11-14T15:58:07.986Z,101549.38
2018-11-14T16:00:36.789Z,101543.77
2018-11-14T16:03:06.387Z,101541.28
2018-11-14T16:05:37.244Z,101548.33
2018-11-14T16:08:06.122Z,101542.80
2018-11-14T16:10:35.920Z,101545.67
2018-11-14T16:13:05.891Z,101538.77
2018-11-14T16:15:36.061Z,101536.92
2018-11-14T16:18:05.167Z,101536.05
2018-11-14T16:20:34.610Z,101530.76
2018-11-14T16:23:04.069Z,101527.84
2018-11-14T16:25:32.935Z,101531.05
2018-11-14T16:28:02.204Z,101523.78
2018-11-14T16:30:32.135Z,101523.42
2018-11-14T16:33:03.142Z,101535.86
2018-11-14T16:35:32.003Z,101533.74
2018-11-14T16:38:00.801Z,101534.91
2018-11-14T16:40:31.008Z,101532.06
2018-11-14T16:43:00.849Z,101532.30
2018-11-14T16:45:29.488Z,101538.66
2018-11-14T16:47:58.260Z,101544.36
2018-11-14T16:50:27.331Z,101543.18
2018-11-14T16:52:56.309Z,101544.05
2018-11-14T16:55:25.259Z,101549.21
2018-11-14T16:57:55.756Z,101546.20
2018-11-14T17:00:28.703Z,101543.30
2018-11-14T17:02:57.322Z,101549.77
2018-11-14T17:05:26.965Z,101551.64
2018-11-14T17:07:55.490Z,101555.16
2018-11-14T17:10:24.389Z,101545.13
2018-11-14T17:12:55.462Z,101550.45
2018-11-14T17:15:25.369Z,101546.36
2018-11-14T17:17:54.989Z,101546.42
2018-11-14T17:20:23.905Z,101543.80
2018-11-14T17:22:53.561Z,101541.86
2018-11-14T17:25:22.341Z,101539.77
2018-11-14T17:27:51.074Z,101534.31
2018-11-14T17:30:21.284Z,101538.77
2018-11-14T17:32:49.944Z,101529.97
2018-11-14T17:35:18.803Z,101534.40
2018-11-14T17:37:47.668Z,101533.24
2018-11-14T17:40:20.640Z,101536.41
2018-11-14T17:42:50.226Z,101532.84
2018-11-14T17:45:21.181Z,101534.70
2018-11-14T17:47:50.879Z,101539.14
2018-11-14T17:50:23.475Z,101537.72
2018-11-14T17:52:52.870Z,101542.02
2018-11-14T17:55:22.641Z,101543.38
2018-11-14T17:57:51.541Z,101551.36
2018-11-14T18:00:21.607Z,101560.05
2018-11-14T18:02:50.342Z,101563.78
2018-11-14T18:05:21.132Z,101557.80
2018-11-14T18:07:50.747Z,101564.48
2018-11-14T18:10:22.602Z,101562.53
2018-11-14T18:12:52.161Z,101567.62
2018-11-14T18:15:21.151Z,101566.51
2018-11-14T18:17:50.805Z,101557.97
2018-11-14T18:20:20.969Z,101568.18
2018-11-14T18:22:50.268Z,101570.10
2018-11-14T18:25:18.966Z,101562.27
2018-11-14T18:27:47.702Z,101565.20
2018-11-14T18:30:19.630Z,101565.15
2018-11-14T18:32:56.767Z,101567.48
2018-11-14T18:35:26.207Z,101573.45
2018-11-14T18:37:55.960Z,101578.54
2018-11-14T18:40:26.500Z,101580.45
2018-11-14T18:42:55.441Z,101576.86
2018-11-14T18:45:27.548Z,101584.74
2018-11-14T18:47:57.100Z,101584.21
2018-11-14T18:50:26.086Z,101585.17
2018-11-14T18:52:54.659Z,101589.99
2018-11-14T18:55:24.920Z,101584.33
2018-11-14T18:57:53.487Z,101584.70
2018-11-14T19:00:24.861Z,101586.41
2018-11-14T19:02:53.549Z,101572.70
2018-11-14T19:05:22.263Z,101571.30
2018-11-14T19:07:50.912Z,101571.02
2018-11-14T19:10:21.545Z,101579.75
2018-11-14T19:12:50.799Z,101572.34
2018-11-14T19:15:23.041Z,101563.57
2018-11-14T19:17:52.043Z,101573.16
2018-11-14T19:20:22.385Z,101561.94
2018-11-14T19:22:51.240Z,101559.94
2018-11-14T19:25:22.142Z,101551.80
2018-11-14T19:27:50.795Z,101557.89
2018-11-14T19:30:22.686Z,101551.06
2018-11-14T19:32:52.345Z,101558.21
2018-11-14T19:35:21.384Z,101563.13
2018-11-14T19:37:51.119Z,101562.22
2018-11-14T19:40:22.729Z,101553.66
2018-11-14T19:42:53.647Z,101566.03
2018-11-14T19:45:24.758Z,101565.25
2018-11-14T19:47:53.698Z,101569.14
2018-11-14T19:50:23.259Z,101564.05
2018-11-14T19:52:51.916Z,101561.91
2018-11-14T19:55:21.948Z,101558.56
2018-11-14T19:57:51.979Z,101554.98
2018-11-14T20:00:24.201Z,101554.08
2018-11-14T20:02:53.820Z,101546.63
2018-11-14T20:05:22.823Z,101546.88
2018-11-14T20:07:51.776Z,101541.98
2018-11-14T20:10:21.672Z,101548.69
2018-11-14T20:12:51.080Z,101537.69
2018-11-14T20:15:21.048Z,101533.39
2018-11-14T20:17:53.408Z,101538.09
2018-11-14T20:20:23.376Z,101535.60
2018-11-14T20:22:51.936Z,101539.93
2018-11-14T20:25:20.545Z,101540.77
2018-11-14T20:27:49.135Z,101536.13
2018-11-14T20:30:20.082Z,101537.64
2018-11-14T20:32:49.464Z,101529.20
2018-11-14T20:35:18.977Z,101530.70
2018-11-14T20:37:47.636Z,101527.77
2018-11-14T20:40:17.483Z,101529.58
2018-11-14T20:42:46.801Z,101533.19
2018-11-14T20:45:17.216Z,101527.81
2018-11-14T20:47:45.796Z,101522.56
2018-11-14T20:50:18.381Z,101524.53
2018-11-14T20:52:48.105Z,101521.31
2018-11-14T20:55:16.957Z,101520.43
2018-11-14T20:57:45.596Z,101521.14
2018-11-14T21:00:18.844Z,101532.61
2018-11-14T21:02:47.954Z,101528.77
2018-11-14T21:05:16.635Z,101529.91
2018-11-14T21:07:45.573Z,101527.20
2018-11-14T21:10:15.412Z,101534.47
2018-11-14T21:12:44.886Z,101525.58
2018-11-14T21:15:17.065Z,101525.34
2018-11-14T21:17:46.376Z,101523.55
2018-11-14T21:20:14.956Z,101519.80
2018-11-14T21:22:44.011Z,101523.26
2018-11-14T21:25:13.749Z,101520.33
2018-11-14T21:27:43.375Z,101516.23
2018-11-14T21:30:15.003Z,101521.14
2018-11-14T21:32:43.754Z,101517.33
2018-11-14T21:35:16.447Z,101518.01
2018-11-14T21:37:46.093Z,101517.12
2018-11-14T21:40:14.667Z,101519.11
2018-11-14T21:42:43.170Z,101516.72
2018-11-14T21:45:13.831Z,101512.34
2018-11-14T21:47:47.572Z,101504.19
2018-11-14T21:50:17.003Z,101504.92
2018-11-14T21:52:45.555Z,101503.76
2018-11-14T21:55:13.966Z,101500.77
2018-11-14T21:57:42.472Z,101501.00
2018-11-14T22:00:14.014Z,101498.22
2018-11-14T22:02:43.905Z,101495.91
2018-11-14T22:05:12.286Z,101492.70
2018-11-14T22:07:40.500Z,101491.66
2018-11-14T22:10:11.543Z,101491.89
2018-11-14T22:12:40.228Z,101488.95
2018-11-14T22:15:09.197Z,101496.86
2018-11-14T22:17:38.063Z,101494.34
2018-11-14T22:20:07.899Z,101496.95
2018-11-14T22:22:35.935Z,101496.52
2018-11-14T22:25:04.263Z,101497.06
2018-11-14T22:27:32.373Z,101495.42
2018-11-14T22:30:00.492Z,101490.59
2018-11-14T22:32:28.949Z,101486.09
2018-11-14T22:34:57.370Z,101491.15
2018-11-14T22:37:25.413Z,101493.25
2018-11-14T22:39:53.702Z,101485.22
2018-11-14T22:42:22.772Z,101487.79
2018-11-14T22:44:51.413Z,101486.74
2018-11-14T22:47:19.662Z,101485.73
2018-11-14T22:49:48.448Z,101486.31
2018-11-14T22:52:16.879Z,101486.48
2018-11-14T22:54:45.021Z,101484.55
2018-11-14T22:57:13.067Z,101479.34
2018-11-14T22:59:41.423Z,101478.50
2018-11-14T23:02:09.966Z,101473.08
2018-11-14T23:04:38.040Z,101484.67
2018-11-14T23:07:06.267Z,101473.08
2018-11-14T23:09:34.365Z,101479.30
2018-11-14T23:12:02.469Z,101478.55
2018-11-14T23:14:31.035Z,101480.89
2018-11-14T23:16:59.208Z,101479.59
2018-11-14T23:19:27.776Z,101475.52
2018-11-14T23:21:56.007Z,101476.98
2018-11-14T23:24:24.057Z,101476.57
2018-11-14T23:26:52.154Z,101476.32
2018-11-14T23:29:20.295Z,101480.02
2018-11-14T23:31:48.328Z,101485.39
2018-11-14T23:34:16.462Z,101485.06
2018-11-14T23:36:44.512Z,101482.07
2018-11-14T23:39:13.682Z,101484.39
2018-11-14T23:41:41.728Z,101479.25
2018-11-14T23:44:10.136Z,101480.60
2018-11-14T23:46:38.590Z,101483.05
2018-11-14T23:49:06.833Z,101480.97
2018-11-14T23:51:35.153Z,101478.80
2018-11-14T23:54:03.169Z,101482.61
2018-11-14T23:56:31.227Z,101477.77
2018-11-14T23:58:59.238Z,101481.22
